createdAt,value
2019-02-17T00:01:30.538Z,56.75
2019-02-17T00:04:01.453Z,60.25
2019-02-17T00:06:32.254Z,54.80
2019-02-17T00:09:04.747Z,57.60
2019-02-17T00:11:35.528Z,51.75
2019-02-17T00:14:06.321Z,55.50
2019-02-17T00:16:37.129Z,54.40
2019-02-17T00:19:07.906Z,61.00
2019-02-17T00:21:38.577Z,56.00
2019-02-17T00:24:09.391Z,66.20
2019-02-17T00:26:40.550Z,59.00
2019-02-17T00:29:12.361Z,59.75
2019-02-17T00:31:43.235Z,57.80
2019-02-17T00:34:14.032Z,53.00
2019-02-17T00:36:44.807Z,53.80
2019-02-17T00:39:15.688Z,63.50
2019-02-17T00:41:46.481Z,56.00
2019-02-17T00:44:18.528Z,64.20
2019-02-17T00:46:50.300Z,64.40
2019-02-17T00:49:21.125Z,57.60
2019-02-17T00:51:51.901Z,61.75
2019-02-17T00:54:22.643Z,60.60
2019-02-17T00:56:53.338Z,66.00
2019-02-17T00:59:24.111Z,63.00
2019-02-17T01:01:54.811Z,60.50
2019-02-17T01:04:25.560Z,64.00
2019-02-17T01:06:56.186Z,62.60
2019-02-17T01:09:26.946Z,64.00
2019-02-17T01:11:57.731Z,66.50
2019-02-17T01:14:28.433Z,66.60
2019-02-17T01:16:59.084Z,63.50
2019-02-17T01:19:29.836Z,62.60
2019-02-17T01:22:00.675Z,63.00
2019-02-17T01:24:31.545Z,61.00
2019-02-17T01:27:02.473Z,65.00
2019-02-17T01:29:33.245Z,55.00
2019-02-17T01:32:03.911Z,64.00
2019-02-17T01:34:34.665Z,69.60
2019-02-17T01:37:05.556Z,64.00
2019-02-17T01:39:36.357Z,63.40
2019-02-17T01:42:07.166Z,65.00
2019-02-17T01:44:37.925Z,64.80
2019-02-17T01:47:08.614Z,69.80
2019-02-17T01:49:39.328Z,63.20
2019-02-17T01:52:09.286Z,65.00
2019-02-17T01:54:40.174Z,62.60
2019-02-17T01:57:11.114Z,65.00
2019-02-17T01:59:42.316Z,72.50
2019-02-17T02:02:13.221Z,67.25
2019-02-17T02:04:44.023Z,67.80
2019-02-17T02:07:14.760Z,66.00
2019-02-17T02:09:45.595Z,65.80
2019-02-17T02:12:16.246Z,64.60
2019-02-17T02:14:47.066Z,60.20
2019-02-17T02:17:17.846Z,62.60
2019-02-17T02:19:48.891Z,71.40
2019-02-17T02:22:19.587Z,58.80
2019-02-17T02:24:50.423Z,57.80
2019-02-17T02:27:22.192Z,58.20
2019-02-17T02:29:52.921Z,53.60
2019-02-17T02:32:24.001Z,57.20
2019-02-17T02:34:54.692Z,61.00
2019-02-17T02:37:25.452Z,61.00
2019-02-17T02:39:56.207Z,65.00
2019-02-17T02:42:27.047Z,64.00
2019-02-17T02:44:57.802Z,57.00
2019-02-17T02:47:28.501Z,61.60
2019-02-17T02:49:59.223Z,57.80
2019-02-17T02:52:29.998Z,54.00
2019-02-17T02:55:00.698Z,56.20
2019-02-17T02:57:31.437Z,59.40
2019-02-17T03:00:02.138Z,52.00
2019-02-17T03:02:33.011Z,63.40
2019-02-17T03:05:04.123Z,61.00
2019-02-17T03:07:36.040Z,60.00
2019-02-17T03:10:07.103Z,58.20
2019-02-17T03:12:37.913Z,65.80
2019-02-17T03:15:08.697Z,63.20
2019-02-17T03:17:39.564Z,65.60
2019-02-17T03:20:14.836Z,52.40
2019-02-17T03:22:46.234Z,55.60
2019-02-17T03:25:17.690Z,56.00
2019-02-17T03:27:48.666Z,59.20
2019-02-17T03:30:19.453Z,60.25
2019-02-17T03:32:51.320Z,63.25
2019-02-17T03:35:21.895Z,65.00
2019-02-17T03:37:52.693Z,60.00
2019-02-17T03:40:23.358Z,53.80
2019-02-17T03:42:54.269Z,52.40
2019-02-17T03:45:24.933Z,51.80
2019-02-17T03:47:56.496Z,62.00
2019-02-17T03:50:27.202Z,56.75
2019-02-17T03:52:58.137Z,58.75
2019-02-17T03:55:28.958Z,59.80
2019-02-17T03:58:00.172Z,60.00
2019-02-17T04:00:30.958Z,55.25
2019-02-17T04:03:01.805Z,61.00
2019-02-17T04:05:32.579Z,56.60
2019-02-17T04:08:03.326Z,55.40
2019-02-17T04:10:34.138Z,59.40
2019-02-17T04:13:04.927Z,59.25
2019-02-17T04:15:35.701Z,57.75
2019-02-17T04:18:06.480Z,60.60
2019-02-17T04:20:37.249Z,51.20
2019-02-17T04:23:09.087Z,48.60
2019-02-17T04:25:39.848Z,53.50
2019-02-17T04:28:10.665Z,58.00
2019-02-17T04:30:41.520Z,59.00
2019-02-17T04:33:12.290Z,53.25
2019-02-17T04:35:43.026Z,52.50
2019-02-17T04:38:13.783Z,48.00
2019-02-17T04:40:44.431Z,52.40
2019-02-17T04:43:15.140Z,48.00
2019-02-17T04:45:45.809Z,61.00
2019-02-17T04:48:16.589Z,52.60
2019-02-17T04:50:47.390Z,46.25
2019-02-17T04:53:18.176Z,55.00
2019-02-17T04:55:48.945Z,59.80
2019-02-17T04:58:25.938Z,58.25
2019-02-17T05:00:59.621Z,60.75
2019-02-17T05:03:30.437Z,56.20
2019-02-17T05:06:01.192Z,49.00
2019-02-17T05:08:32.002Z,52.00
2019-02-17T05:11:02.921Z,59.40
2019-02-17T05:13:33.541Z,57.00
2019-02-17T05:16:04.128Z,51.00
2019-02-17T05:18:35.009Z,53.00
2019-02-17T05:21:05.683Z,52.80
2019-02-17T05:23:36.457Z,56.00
2019-02-17T05:26:07.183Z,51.00
2019-02-17T05:28:37.975Z,59.25
2019-02-17T05:31:08.631Z,62.00
2019-02-17T05:33:39.442Z,54.00
2019-02-17T05:36:10.205Z,61.60
2019-02-17T05:38:40.997Z,54.50
2019-02-17T05:41:11.877Z,52.40
2019-02-17T05:43:42.717Z,49.50
2019-02-17T05:46:13.536Z,50.00
2019-02-17T05:48:44.312Z,61.00
2019-02-17T05:51:15.167Z,52.00
2019-02-17T05:53:45.867Z,54.60
2019-02-17T05:56:16.604Z,48.60
2019-02-17T05:58:47.472Z,58.50
2019-02-17T06:01:18.155Z,56.00
2019-02-17T06:03:48.961Z,52.25
2019-02-17T06:06:19.713Z,57.40
2019-02-17T06:08:50.589Z,48.00
2019-02-17T06:11:21.283Z,58.50
2019-02-17T06:13:52.081Z,51.00
2019-02-17T06:16:22.746Z,54.00
2019-02-17T06:18:53.544Z,59.20
2019-02-17T06:21:24.110Z,50.20
2019-02-17T06:23:54.989Z,54.25
2019-02-17T06:26:25.682Z,53.50
2019-02-17T06:28:56.461Z,54.00
2019-02-17T06:31:27.146Z,55.75
2019-02-17T06:33:57.962Z,57.60
2019-02-17T06:36:28.701Z,55.00
2019-02-17T06:38:59.523Z,58.00
2019-02-17T06:41:30.298Z,53.40
2019-02-17T06:44:01.271Z,49.50
2019-02-17T06:46:38.055Z,53.80
2019-02-17T06:49:08.905Z,57.20
2019-02-17T06:51:39.682Z,43.00
2019-02-17T06:54:10.448Z,46.40
2019-02-17T06:57:09.062Z,46.00
2019-02-17T06:59:39.899Z,47.20
2019-02-17T07:02:10.648Z,46.60
2019-02-17T07:04:59.303Z,45.40
2019-02-17T07:07:29.971Z,43.40
2019-02-17T07:10:00.694Z,50.20
2019-02-17T07:12:31.381Z,55.00
2019-02-17T07:15:02.167Z,49.60
2019-02-17T07:17:33.888Z,53.40
2019-02-17T07:20:04.652Z,51.40
2019-02-17T07:22:35.312Z,61.20
2019-02-17T07:25:05.861Z,58.75
2019-02-17T07:27:36.602Z,59.40
2019-02-17T07:30:07.430Z,56.60
2019-02-17T07:32:38.187Z,51.00
2019-02-17T07:35:08.761Z,51.00
2019-02-17T07:37:39.352Z,55.00
2019-02-17T07:40:10.108Z,56.00
2019-02-17T07:42:40.793Z,52.75
2019-02-17T07:45:11.625Z,55.00
2019-02-17T07:47:42.390Z,71.00
2019-02-17T07:50:13.175Z,54.40
2019-02-17T07:52:43.857Z,57.50
2019-02-17T07:55:14.648Z,56.00
2019-02-17T07:57:45.441Z,88.00
2019-02-17T08:00:16.254Z,78.25
2019-02-17T08:02:46.987Z,61.40
2019-02-17T08:05:17.875Z,60.50
2019-02-17T08:07:48.552Z,55.00
2019-02-17T08:10:19.439Z,59.00
2019-02-17T08:12:50.040Z,62.40
2019-02-17T08:15:20.840Z,56.50
2019-02-17T08:17:51.605Z,56.80
2019-02-17T08:20:22.472Z,60.80
2019-02-17T08:22:53.163Z,57.20
2019-02-17T08:25:23.965Z,58.00
2019-02-17T08:27:54.759Z,62.20
2019-02-17T08:30:25.615Z,68.25
2019-02-17T08:32:56.326Z,64.00
2019-02-17T08:35:28.092Z,66.20
2019-02-17T08:37:58.785Z,49.00
2019-02-17T08:40:29.544Z,57.75
2019-02-17T08:43:00.163Z,62.50
2019-02-17T08:45:30.933Z,60.75
2019-02-17T08:48:01.816Z,67.00
2019-02-17T08:50:32.733Z,64.40
2019-02-17T08:53:03.592Z,93.00
2019-02-17T08:55:34.366Z,59.00
2019-02-17T08:58:05.162Z,65.00
2019-02-17T09:00:36.044Z,63.60
2019-02-17T09:03:06.724Z,64.40
2019-02-17T09:05:43.820Z,77.00
2019-02-17T09:08:09.840Z,74.00
2019-02-17T09:10:40.621Z,58.00
2019-02-17T09:13:11.200Z,60.60
2019-02-17T09:15:41.988Z,57.50
2019-02-17T09:18:12.653Z,58.20
2019-02-17T09:20:43.344Z,66.60
2019-02-17T09:23:14.104Z,60.60
2019-02-17T09:25:45.033Z,57.80
2019-02-17T09:28:15.832Z,68.20
2019-02-17T09:30:46.588Z,59.40
2019-02-17T09:33:17.397Z,65.00
2019-02-17T09:35:48.147Z,57.20
2019-02-17T09:38:18.757Z,64.00
2019-02-17T09:40:49.535Z,55.50
2019-02-17T09:43:21.348Z,56.40
2019-02-17T09:45:52.232Z,61.50
2019-02-17T09:48:22.992Z,58.60
2019-02-17T09:50:53.789Z,54.00
2019-02-17T09:53:24.583Z,66.40
2019-02-17T09:55:55.445Z,58.20
2019-02-17T09:58:26.161Z,52.50
2019-02-17T10:00:56.921Z,60.00
2019-02-17T10:03:27.504Z,52.40
2019-02-17T10:05:58.089Z,53.25
2019-02-17T10:08:28.838Z,52.60
2019-02-17T10:14:06.992Z,55.80
2019-02-17T10:16:37.666Z,51.80
2019-02-17T10:19:09.510Z,49.60
2019-02-17T10:21:40.276Z,53.00
2019-02-17T10:24:11.039Z,50.00
2019-02-17T10:26:41.847Z,53.20
2019-02-17T10:29:12.735Z,51.80
2019-02-17T10:31:43.510Z,55.40
2019-02-17T10:34:14.291Z,50.00
2019-02-17T10:36:45.166Z,51.00
2019-02-17T10:39:15.954Z,52.00
2019-02-17T10:41:46.835Z,52.00
2019-02-17T10:44:17.747Z,52.00
2019-02-17T10:46:48.519Z,55.00
2019-02-17T10:49:19.446Z,52.60
2019-02-17T10:51:50.315Z,55.40
2019-02-17T10:54:23.027Z,55.40
2019-02-17T10:56:53.399Z,57.50
2019-02-17T10:59:24.173Z,55.60
2019-02-17T11:01:55.883Z,52.60
2019-02-17T11:04:26.702Z,55.40
2019-02-17T11:06:59.855Z,54.00
2019-02-17T11:09:30.011Z,52.25
2019-02-17T11:12:00.775Z,49.80
2019-02-17T11:14:31.475Z,58.60
2019-02-17T11:17:02.224Z,58.20
2019-02-17T11:19:33.018Z,57.00
2019-02-17T11:22:03.788Z,58.20
2019-02-17T11:24:34.582Z,56.20
2019-02-17T11:27:05.385Z,55.00
2019-02-17T11:29:36.037Z,58.50
2019-02-17T11:32:06.882Z,58.00
2019-02-17T11:34:37.701Z,56.80
2019-02-17T11:37:08.524Z,51.20
2019-02-17T11:39:39.186Z,51.00
2019-02-17T11:42:09.993Z,57.00
2019-02-17T11:44:40.654Z,54.40
2019-02-17T11:47:11.590Z,56.00
2019-02-17T11:49:42.332Z,50.00
2019-02-17T11:52:13.133Z,48.20
2019-02-17T11:54:44.006Z,54.20
2019-02-17T11:57:14.799Z,58.75
2019-02-17T11:59:45.366Z,51.40
2019-02-17T12:02:24.600Z,50.40
2019-02-17T12:04:48.608Z,71.75
2019-02-17T12:07:19.394Z,51.20
2019-02-17T12:09:50.133Z,57.50
2019-02-17T12:12:20.971Z,105.00
2019-02-17T12:14:51.710Z,56.25
2019-02-17T12:17:23.347Z,50.00
2019-02-17T12:19:55.771Z,45.40
2019-02-17T12:22:31.448Z,59.00
2019-02-17T12:25:09.356Z,48.20
2019-02-17T12:27:53.914Z,43.60
2019-02-17T12:30:25.831Z,46.50
2019-02-17T12:32:56.690Z,44.00
2019-02-17T12:35:27.501Z,41.20
2019-02-17T12:37:58.146Z,45.00
2019-02-17T12:40:28.941Z,42.80
2019-02-17T12:42:59.716Z,39.60
2019-02-17T12:45:30.304Z,42.50
2019-02-17T12:48:01.078Z,45.20
2019-02-17T12:50:31.785Z,47.00
2019-02-17T12:53:02.546Z,42.80
2019-02-17T12:55:33.231Z,50.00
2019-02-17T12:58:04.014Z,47.60
2019-02-17T13:00:34.718Z,50.00
2019-02-17T13:03:05.500Z,52.50
2019-02-17T13:05:37.086Z,57.00
2019-02-17T13:08:08.075Z,56.00
2019-02-17T13:10:39.074Z,52.60
2019-02-17T13:13:09.852Z,52.60
2019-02-17T13:15:40.633Z,52.40
2019-02-17T13:18:11.310Z,59.00
2019-02-17T13:20:42.115Z,50.00
2019-02-17T13:23:12.883Z,52.40
2019-02-17T13:25:43.675Z,54.80
2019-02-17T13:28:14.429Z,52.25
2019-02-17T13:30:45.122Z,55.80
2019-02-17T13:33:15.805Z,51.00
2019-02-17T13:35:46.497Z,48.00
2019-02-17T13:38:17.260Z,54.60
2019-02-17T13:40:47.971Z,49.75
2019-02-17T13:43:18.646Z,48.00
2019-02-17T13:45:49.513Z,48.00
2019-02-17T13:48:20.342Z,54.60
2019-02-17T13:50:51.111Z,53.20
2019-02-17T13:53:21.917Z,51.80
2019-02-17T13:55:52.685Z,50.00
2019-02-17T13:58:23.245Z,50.40
2019-02-17T14:00:53.833Z,46.40
2019-02-17T14:03:24.609Z,47.00
2019-02-17T14:05:55.302Z,49.40
2019-02-17T14:08:26.102Z,52.00
2019-02-17T14:10:56.243Z,45.00
2019-02-17T14:13:26.830Z,47.80
2019-02-17T14:15:57.422Z,54.80
2019-02-17T14:18:29.507Z,50.00
2019-02-17T14:21:00.024Z,50.40
2019-02-17T14:23:30.797Z,54.00
2019-02-17T14:26:01.384Z,57.00
2019-02-17T14:28:32.088Z,64.75
2019-02-17T14:38:39.718Z,53.80
2019-02-17T14:41:10.338Z,51.80
2019-02-17T14:43:41.225Z,52.00
2019-02-17T14:46:12.181Z,54.60
2019-02-17T14:48:42.990Z,53.75
2019-02-17T14:51:13.973Z,53.25
2019-02-17T14:53:44.668Z,56.00
2019-02-17T14:56:15.459Z,49.60
2019-02-17T14:58:46.351Z,53.50
2019-02-17T15:01:17.113Z,52.80
2019-02-17T15:03:48.078Z,52.75
2019-02-17T15:06:19.101Z,55.75
2019-02-17T15:08:49.821Z,54.75
2019-02-17T15:15:29.118Z,60.00
2019-02-17T15:17:59.874Z,57.80
2019-02-17T15:20:30.696Z,54.40
2019-02-17T15:23:01.551Z,52.50
2019-02-17T15:25:32.330Z,60.80
2019-02-17T15:28:03.015Z,47.00
2019-02-17T15:30:33.779Z,52.20
2019-02-17T15:33:04.524Z,57.75
2019-02-17T15:35:35.247Z,62.80
2019-02-17T15:38:05.939Z,78.75
2019-02-17T15:40:36.756Z,65.40
2019-02-17T15:43:07.520Z,60.20
2019-02-17T15:49:27.154Z,61.80
2019-02-17T15:51:57.952Z,63.00
2019-02-17T16:26:09.387Z,68.00
2019-02-17T16:28:40.069Z,66.25
2019-02-17T16:31:10.878Z,66.00
2019-02-17T16:33:41.538Z,66.00
2019-02-17T16:36:12.416Z,64.00
2019-02-17T16:38:43.337Z,79.00
2019-02-17T16:41:14.086Z,67.20
2019-02-17T16:43:45.033Z,66.80
2019-02-17T16:46:15.889Z,67.40
2019-02-17T16:48:46.671Z,65.80
2019-02-17T16:51:17.426Z,56.80
2019-02-17T16:53:48.141Z,57.50
2019-02-17T16:56:20.731Z,57.00
2019-02-17T16:58:51.425Z,63.75
2019-02-17T17:01:22.254Z,57.25
2019-02-17T17:03:52.980Z,62.00
2019-02-17T17:06:23.711Z,55.40
2019-02-17T17:08:54.427Z,59.00
2019-02-17T17:11:25.141Z,54.80
2019-02-17T17:13:55.820Z,68.00
2019-02-17T17:16:26.839Z,63.00
2019-02-17T17:18:57.608Z,80.20
2019-02-17T17:21:28.639Z,80.20
2019-02-17T17:23:59.704Z,87.25
2019-02-17T17:26:30.566Z,89.40
2019-02-17T17:29:01.340Z,84.80
2019-02-17T17:31:32.068Z,89.00
2019-02-17T17:34:02.613Z,77.80
2019-02-17T17:36:33.626Z,78.50
2019-02-17T17:39:04.729Z,79.60
2019-02-17T17:41:37.213Z,77.00
2019-02-17T17:44:07.907Z,70.80
2019-02-17T17:46:38.708Z,70.20
2019-02-17T17:49:18.814Z,63.00
2019-02-17T17:51:41.896Z,66.00
2019-02-17T17:54:12.669Z,72.20
2019-02-17T17:56:43.365Z,64.50
2019-02-17T17:59:14.057Z,65.00
2019-02-17T18:01:44.805Z,74.75
2019-02-17T18:04:15.637Z,74.25
2019-02-17T18:06:46.488Z,73.00
2019-02-17T18:09:17.184Z,83.75
2019-02-17T18:11:47.977Z,79.75
2019-02-17T18:14:18.647Z,86.20
2019-02-17T18:16:49.523Z,90.00
2019-02-17T18:19:20.221Z,89.00
2019-02-17T18:21:50.992Z,80.60
2019-02-17T18:24:21.778Z,84.60
2019-02-17T18:26:52.546Z,77.60
2019-02-17T18:29:23.285Z,75.60
2019-02-17T18:31:54.024Z,71.00
2019-02-17T18:34:24.701Z,68.40
2019-02-17T18:36:55.524Z,70.00
2019-02-17T18:39:26.286Z,66.40
2019-02-17T18:41:57.204Z,68.60
2019-02-17T18:44:27.957Z,74.20
2019-02-17T18:46:58.889Z,73.40
2019-02-17T18:49:29.642Z,78.20
2019-02-17T18:52:00.684Z,76.60
2019-02-17T18:54:31.402Z,80.25
2019-02-17T18:57:08.232Z,76.25
2019-02-17T18:59:35.635Z,78.25
2019-02-17T19:02:06.438Z,80.40
2019-02-17T19:04:37.227Z,77.40
2019-02-17T19:07:08.083Z,80.50
2019-02-17T19:09:38.887Z,77.00
2019-02-17T19:12:09.954Z,80.00
2019-02-17T19:14:40.704Z,76.00
2019-02-17T19:17:11.463Z,76.40
2019-02-17T19:19:42.319Z,79.00
2019-02-17T19:22:13.144Z,76.60
2019-02-17T19:24:43.881Z,72.20
2019-02-17T19:27:14.753Z,74.00
2019-02-17T19:29:45.447Z,76.60
2019-02-17T19:32:16.514Z,71.60
2019-02-17T19:34:47.235Z,77.00
2019-02-17T19:37:18.023Z,75.25
2019-02-17T19:39:48.694Z,67.40
2019-02-17T19:42:19.591Z,69.00
2019-02-17T19:44:50.261Z,70.60
2019-02-17T19:47:21.322Z,66.00
2019-02-17T19:49:52.064Z,64.25
2019-02-17T19:52:22.861Z,64.25
2019-02-17T19:54:53.680Z,67.50
2019-02-17T19:57:24.504Z,73.75
2019-02-17T19:59:56.228Z,63.00
2019-02-17T20:02:46.089Z,66.75
2019-02-17T20:05:18.965Z,68.00
2019-02-17T20:07:50.035Z,74.00
2019-02-17T20:10:20.747Z,65.60
2019-02-17T20:12:51.717Z,66.20
2019-02-17T20:15:24.427Z,65.20
2019-02-17T20:17:55.460Z,68.25
2019-02-17T20:20:26.174Z,72.50
2019-02-17T20:22:57.017Z,66.40
2019-02-17T20:25:27.716Z,69.80
2019-02-17T20:27:58.468Z,69.20
2019-02-17T20:30:29.234Z,68.40
2019-02-17T20:33:00.374Z,72.00
2019-02-17T20:35:31.231Z,68.00
2019-02-17T20:38:02.012Z,79.20
2019-02-17T20:40:32.821Z,80.25
2019-02-17T20:43:03.591Z,74.80
2019-02-17T20:45:34.265Z,75.75
2019-02-17T20:48:05.456Z,74.80
2019-02-17T20:50:36.149Z,75.75
2019-02-17T20:53:07.082Z,76.00
2019-02-17T20:55:37.805Z,75.20
2019-02-17T20:58:08.638Z,75.00
2019-02-17T21:00:39.397Z,77.00
2019-02-17T21:03:10.186Z,70.20
2019-02-17T21:05:40.962Z,69.75
2019-02-17T21:08:11.837Z,78.00
2019-02-17T21:10:42.663Z,72.00
2019-02-17T21:13:13.501Z,80.25
2019-02-17T21:15:44.318Z,79.50
2019-02-17T21:18:15.098Z,73.25
2019-02-17T21:20:45.877Z,68.00
2019-02-17T21:23:16.771Z,71.00
2019-02-17T21:25:47.458Z,77.25
2019-02-17T21:28:18.241Z,72.50
2019-02-17T21:30:50.567Z,63.20
2019-02-17T21:33:21.659Z,68.60
2019-02-17T21:35:52.418Z,74.20
2019-02-17T21:38:23.341Z,72.00
2019-02-17T21:40:54.126Z,70.75
2019-02-17T21:43:24.968Z,69.25
2019-02-17T21:45:55.777Z,72.00
2019-02-17T21:48:26.637Z,74.50
2019-02-17T21:50:57.433Z,81.00
2019-02-17T21:53:28.227Z,75.00
2019-02-17T21:55:59.104Z,74.25
2019-02-17T21:58:29.923Z,71.80
2019-02-17T22:01:00.590Z,78.00
2019-02-17T22:03:31.389Z,78.50
2019-02-17T22:06:02.155Z,77.60
2019-02-17T22:08:32.877Z,79.50
2019-02-17T22:11:03.606Z,77.50
2019-02-17T22:13:34.396Z,79.60
2019-02-17T22:16:05.301Z,78.00
2019-02-17T22:18:36.174Z,80.80
2019-02-17T22:21:06.315Z,71.00
2019-02-17T22:23:36.419Z,75.75
2019-02-17T22:26:07.018Z,72.20
2019-02-17T22:28:38.082Z,69.00
2019-02-17T22:31:08.884Z,67.20
2019-02-17T22:33:39.751Z,77.00
2019-02-17T22:36:10.525Z,76.20
2019-02-17T22:38:41.322Z,71.40
2019-02-17T22:41:12.224Z,71.60
2019-02-17T22:43:43.406Z,71.00
2019-02-17T22:46:14.145Z,71.50
2019-02-17T22:48:45.022Z,73.60
2019-02-17T22:51:15.842Z,72.00
2019-02-17T22:53:46.638Z,79.00
2019-02-17T22:56:17.310Z,79.40
2019-02-17T22:58:48.097Z,76.60
2019-02-17T23:01:22.494Z,79.00
2019-02-17T23:03:53.242Z,76.00
2019-02-17T23:06:23.953Z,78.25
2019-02-17T23:08:54.943Z,80.00
2019-02-17T23:11:25.705Z,75.60
2019-02-17T23:13:56.494Z,76.75
2019-02-17T23:16:27.052Z,78.40
2019-02-17T23:18:58.011Z,79.00
2019-02-17T23:21:28.811Z,77.40
2019-02-17T23:23:59.825Z,77.00
2019-02-17T23:26:30.733Z,76.00
2019-02-17T23:29:01.754Z,78.40
2019-02-17T23:31:32.636Z,74.00
2019-02-17T23:34:03.303Z,75.50
2019-02-17T23:36:35.083Z,71.25
2019-02-17T23:39:06.402Z,80.75
2019-02-17T23:41:38.168Z,72.60
2019-02-17T23:44:09.092Z,78.40
2019-02-17T23:46:39.829Z,76.60
2019-02-17T23:49:10.678Z,78.00
2019-02-17T23:51:41.433Z,74.40
2019-02-17T23:54:12.233Z,70.00
2019-02-17T23:56:43.097Z,73.50
2019-02-17T23:59:13.878Z,73.40
